ILUBB ESGG-EKCH
Flight info
| Callsign | ILUBB |
|---|---|
| Flight time | N/A |
| Altitude | 10000 |
| Route | TOPLA L996 ERNOV |
| Aircraft | BE36/L-BDFGLORY/S |
Departure
| Time | N/A |
|---|---|
| Airport | Göteborg Landvetter Airport (ESGG) |
Arrival
| Time | 2026-04-24 19:17 |
|---|---|
| Airport | Copenhagen Kastrup Airport (EKCH) |
| Time | Latitude | Longitude | Altitude | Speed | Heading |
|---|---|---|---|---|---|
| 2026-04-24 18:54 | 56.25127 | 12.55430 | 9966 ft | 199 kts | 178° |
| 2026-04-24 18:55 | 56.22371 | 12.56085 | 9971 ft | 199 kts | 178° |
| 2026-04-24 18:55 | 56.20992 | 12.56413 | 9970 ft | 199 kts | 178° |
| 2026-04-24 18:55 | 56.19616 | 12.56741 | 9966 ft | 199 kts | 178° |
| 2026-04-24 18:56 | 56.18241 | 12.57066 | 9969 ft | 200 kts | 178° |
| 2026-04-24 18:56 | 56.16864 | 12.57394 | 9971 ft | 200 kts | 178° |
| 2026-04-24 18:56 | 56.15486 | 12.57721 | 9971 ft | 200 kts | 178° |
| 2026-04-24 18:56 | 56.14126 | 12.58042 | 9970 ft | 200 kts | 178° |
| 2026-04-24 18:57 | 56.12748 | 12.58369 | 9968 ft | 200 kts | 178° |
| 2026-04-24 18:57 | 56.11373 | 12.58612 | 9967 ft | 197 kts | 187° |
| 2026-04-24 18:57 | 56.10016 | 12.58463 | 9968 ft | 195 kts | 191° |
| 2026-04-24 18:57 | 56.08650 | 12.58343 | 9968 ft | 196 kts | 188° |
| 2026-04-24 18:58 | 56.07279 | 12.58297 | 9967 ft | 197 kts | 187° |
| 2026-04-24 18:58 | 56.05909 | 12.58261 | 9966 ft | 197 kts | 187° |
| 2026-04-24 18:58 | 56.04537 | 12.58220 | 9984 ft | 197 kts | 187° |
| 2026-04-24 18:58 | 56.03166 | 12.58177 | 9983 ft | 197 kts | 187° |
| 2026-04-24 18:59 | 56.01801 | 12.58134 | 9981 ft | 196 kts | 187° |
| 2026-04-24 18:59 | 56.00432 | 12.58091 | 9982 ft | 196 kts | 187° |
| 2026-04-24 18:59 | 55.99086 | 12.58049 | 9982 ft | 196 kts | 187° |
| 2026-04-24 18:59 | 55.97718 | 12.58004 | 9982 ft | 196 kts | 187° |
| 2026-04-24 19:00 | 55.96352 | 12.57962 | 9983 ft | 196 kts | 187° |
| 2026-04-24 19:00 | 55.94985 | 12.57930 | 9984 ft | 197 kts | 187° |
| 2026-04-24 19:00 | 55.93618 | 12.57905 | 9985 ft | 197 kts | 187° |
| 2026-04-24 19:00 | 55.92249 | 12.57881 | 9974 ft | 197 kts | 187° |
| 2026-04-24 19:01 | 55.90875 | 12.57863 | 9974 ft | 197 kts | 187° |
| 2026-04-24 19:01 | 55.89505 | 12.57843 | 9975 ft | 197 kts | 187° |
| 2026-04-24 19:01 | 55.88131 | 12.57822 | 9979 ft | 197 kts | 187° |
| 2026-04-24 19:01 | 55.86754 | 12.57798 | 9979 ft | 197 kts | 187° |
| 2026-04-24 19:02 | 55.85841 | 12.57781 | 9980 ft | 198 kts | 187° |
| 2026-04-24 19:02 | 55.84019 | 12.57748 | 9985 ft | 198 kts | 187° |
| 2026-04-24 19:02 | 55.82642 | 12.57720 | 9982 ft | 198 kts | 187° |
| 2026-04-24 19:02 | 55.81266 | 12.57695 | 9983 ft | 197 kts | 187° |
| 2026-04-24 19:03 | 55.79890 | 12.57673 | 9984 ft | 197 kts | 187° |
| 2026-04-24 19:03 | 55.78519 | 12.57653 | 9984 ft | 197 kts | 187° |
| 2026-04-24 19:03 | 55.77141 | 12.57632 | 9986 ft | 197 kts | 187° |
| 2026-04-24 19:03 | 55.75887 | 12.57001 | 9943 ft | 183 kts | 226° |
| 2026-04-24 19:04 | 55.75009 | 12.55431 | 9825 ft | 182 kts | 234° |
| 2026-04-24 19:04 | 55.74014 | 12.54002 | 9699 ft | 190 kts | 225° |
| 2026-04-24 19:04 | 55.72905 | 12.52646 | 9572 ft | 192 kts | 223° |
| 2026-04-24 19:04 | 55.71819 | 12.51330 | 9443 ft | 192 kts | 224° |
| 2026-04-24 19:05 | 55.70716 | 12.49976 | 9314 ft | 193 kts | 224° |
| 2026-04-24 19:05 | 55.69614 | 12.48617 | 9185 ft | 193 kts | 224° |
| 2026-04-24 19:05 | 55.68508 | 12.47257 | 9053 ft | 193 kts | 224° |
| 2026-04-24 19:05 | 55.67404 | 12.45901 | 8924 ft | 193 kts | 224° |
| 2026-04-24 19:06 | 55.66300 | 12.44547 | 8775 ft | 193 kts | 224° |
| 2026-04-24 19:06 | 55.65193 | 12.43189 | 8642 ft | 193 kts | 223° |
| 2026-04-24 19:06 | 55.64071 | 12.41810 | 8390 ft | 199 kts | 223° |
| 2026-04-24 19:06 | 55.62910 | 12.40449 | 8136 ft | 204 kts | 215° |
| 2026-04-24 19:07 | 55.61475 | 12.40019 | 7866 ft | 219 kts | 176° |
| 2026-04-24 19:07 | 55.59996 | 12.40742 | 7621 ft | 221 kts | 164° |
| 2026-04-24 19:07 | 55.59033 | 12.41331 | 7459 ft | 221 kts | 163° |
| 2026-04-24 19:07 | 55.57078 | 12.42241 | 7134 ft | 216 kts | 185° |
| 2026-04-24 19:08 | 55.55693 | 12.41463 | 6887 ft | 203 kts | 220° |
| 2026-04-24 19:08 | 55.54572 | 12.40035 | 6645 ft | 201 kts | 224° |
| 2026-04-24 19:08 | 55.53460 | 12.38543 | 6406 ft | 200 kts | 225° |
| 2026-04-24 19:08 | 55.52357 | 12.37042 | 6150 ft | 200 kts | 225° |
| 2026-04-24 19:09 | 55.51257 | 12.35532 | 5813 ft | 202 kts | 225° |
| 2026-04-24 19:09 | 55.50158 | 12.34012 | 5435 ft | 199 kts | 225° |
| 2026-04-24 19:09 | 55.49080 | 12.32519 | 5055 ft | 195 kts | 225° |
| 2026-04-24 19:09 | 55.48019 | 12.31031 | 4570 ft | 192 kts | 225° |
| 2026-04-24 19:10 | 55.46982 | 12.29602 | 4058 ft | 187 kts | 220° |
| 2026-04-24 19:10 | 55.45717 | 12.28984 | 3531 ft | 196 kts | 181° |
| 2026-04-24 19:10 | 55.44478 | 12.29866 | 3019 ft | 200 kts | 143° |
| 2026-04-24 19:10 | 55.43753 | 12.31937 | 2502 ft | 202 kts | 103° |
| 2026-04-24 19:11 | 55.43793 | 12.34367 | 2020 ft | 196 kts | 76° |
| 2026-04-24 19:11 | 55.44116 | 12.36551 | 1983 ft | 176 kts | 60° |
| 2026-04-24 19:11 | 55.44854 | 12.38152 | 1977 ft | 165 kts | 37° |
| 2026-04-24 19:11 | 55.45685 | 12.39512 | 1979 ft | 162 kts | 36° |
| 2026-04-24 19:12 | 55.46519 | 12.40822 | 1979 ft | 159 kts | 34° |
| 2026-04-24 19:12 | 55.47359 | 12.42094 | 1976 ft | 160 kts | 35° |
| 2026-04-24 19:12 | 55.48202 | 12.43394 | 1975 ft | 161 kts | 36° |
| 2026-04-24 19:12 | 55.49047 | 12.44693 | 1977 ft | 161 kts | 34° |
| 2026-04-24 19:13 | 55.49609 | 12.45551 | 1975 ft | 161 kts | 35° |
| 2026-04-24 19:13 | 55.50736 | 12.47295 | 1975 ft | 161 kts | 36° |
| 2026-04-24 19:13 | 55.51586 | 12.48591 | 1975 ft | 162 kts | 35° |
| 2026-04-24 19:13 | 55.52417 | 12.49882 | 1810 ft | 152 kts | 35° |
| 2026-04-24 19:14 | 55.53188 | 12.51060 | 1609 ft | 140 kts | 34° |
| 2026-04-24 19:14 | 55.53897 | 12.52160 | 1421 ft | 132 kts | 35° |
| 2026-04-24 19:14 | 55.54348 | 12.52848 | 1304 ft | 128 kts | 34° |
| 2026-04-24 19:14 | 55.55216 | 12.54193 | 1091 ft | 123 kts | 35° |
| 2026-04-24 19:15 | 55.55857 | 12.55177 | 922 ft | 121 kts | 37° |
| 2026-04-24 19:15 | 55.56480 | 12.56142 | 761 ft | 116 kts | 38° |
| 2026-04-24 19:15 | 55.57070 | 12.57040 | 615 ft | 114 kts | 38° |
| 2026-04-24 19:15 | 55.57656 | 12.57950 | 466 ft | 103 kts | 38° |
| 2026-04-24 19:16 | 55.58465 | 12.59200 | 299 ft | 88 kts | 36° |
| 2026-04-24 19:16 | 55.58923 | 12.59918 | 155 ft | 85 kts | 36° |
| 2026-04-24 19:16 | 55.59351 | 12.60567 | 31 ft | 76 kts | 36° |
| 2026-04-24 19:17 | 55.59663 | 12.61032 | 16 ft | 46 kts | 42° |
| 2026-04-24 19:17 | 55.59885 | 12.61380 | 13 ft | 47 kts | 40° |
| 2026-04-24 19:17 | 55.60179 | 12.61819 | 16 ft | 55 kts | 42° |
| 2026-04-24 19:17 | 55.60439 | 12.62211 | 14 ft | 43 kts | 28° |
| 2026-04-24 19:18 | 55.60681 | 12.62360 | 19 ft | 32 kts | 13° |
| 2026-04-24 19:18 | 55.60858 | 12.62502 | 17 ft | 26 kts | 40° |
| 2026-04-24 19:18 | 55.61035 | 12.62758 | 13 ft | 38 kts | 39° |
| 2026-04-24 19:18 | 55.61242 | 12.63088 | 16 ft | 42 kts | 42° |
| 2026-04-24 19:19 | 55.61459 | 12.63433 | 14 ft | 42 kts | 42° |
| 2026-04-24 19:19 | 55.61679 | 12.63774 | 13 ft | 41 kts | 42° |
| 2026-04-24 19:19 | 55.61880 | 12.64075 | 16 ft | 34 kts | 28° |
| 2026-04-24 19:19 | 55.62012 | 12.64188 | 14 ft | 12 kts | 23° |
| 2026-04-24 19:20 | 55.62089 | 12.64253 | 13 ft | 13 kts | 25° |
| 2026-04-24 19:20 | 55.62141 | 12.64297 | 11 ft | 0 kts | 26° |
| 2026-04-24 19:20 | 55.62179 | 12.64329 | 10 ft | 22 kts | 22° |
| 2026-04-24 19:21 | 55.62309 | 12.64207 | 10 ft | 33 kts | 303° |
| 2026-04-24 19:21 | 55.62412 | 12.63925 | 13 ft | 44 kts | 302° |
| 2026-04-24 19:21 | 55.62662 | 12.63253 | 14 ft | 24 kts | 303° |
| 2026-04-24 19:22 | 55.62717 | 12.63109 | 16 ft | 19 kts | 302° |
| 2026-04-24 19:22 | 55.62830 | 12.63080 | 14 ft | 10 kts | 5° |
| 2026-04-24 19:22 | 55.62869 | 12.63130 | 14 ft | 0 kts | 40° |